sensor_id;sensor_type;location;lat;lon;timestamp;pressure;altitude;pressure_sealevel;temperature;humidity
39411;BME280;26579;43.238;23.124;2023-04-08T00:02:24;97099.88;;;7.14;62.01
39411;BME280;26579;43.238;23.124;2023-04-08T00:04:50;97116.91;;;7.31;60.82
39411;BME280;26579;43.238;23.124;2023-04-08T00:07:16;97113.19;;;7.35;60.18
39411;BME280;26579;43.238;23.124;2023-04-08T00:09:41;97112.56;;;7.31;60.72
39411;BME280;26579;43.238;23.124;2023-04-08T00:12:07;97103.84;;;7.19;61.69
39411;BME280;26579;43.238;23.124;2023-04-08T00:14:33;97112.34;;;7.21;62.78
39411;BME280;26579;43.238;23.124;2023-04-08T00:16:59;97101.84;;;7.10;63.25
39411;BME280;26579;43.238;23.124;2023-04-08T00:19:24;97094.78;;;7.12;62.45
39411;BME280;26579;43.238;23.124;2023-04-08T00:21:50;97090.75;;;7.08;61.76
39411;BME280;26579;43.238;23.124;2023-04-08T00:24:16;97077.91;;;7.07;62.51
39411;BME280;26579;43.238;23.124;2023-04-08T00:26:41;97100.63;;;7.16;61.22
39411;BME280;26579;43.238;23.124;2023-04-08T00:29:07;97107.78;;;7.25;61.19
39411;BME280;26579;43.238;23.124;2023-04-08T00:31:33;97094.84;;;7.25;60.78
39411;BME280;26579;43.238;23.124;2023-04-08T00:33:58;97093.81;;;7.28;59.73
39411;BME280;26579;43.238;23.124;2023-04-08T00:36:24;97087.28;;;7.22;61.51
39411;BME280;26579;43.238;23.124;2023-04-08T00:38:51;97099.00;;;7.28;60.94
39411;BME280;26579;43.238;23.124;2023-04-08T00:41:16;97095.53;;;7.27;61.27
39411;BME280;26579;43.238;23.124;2023-04-08T00:43:42;97100.72;;;7.27;59.67
39411;BME280;26579;43.238;23.124;2023-04-08T00:46:08;97102.00;;;7.34;59.03
39411;BME280;26579;43.238;23.124;2023-04-08T00:48:34;97090.34;;;7.14;60.10
39411;BME280;26579;43.238;23.124;2023-04-08T00:50:59;97106.09;;;7.24;60.55
39411;BME280;26579;43.238;23.124;2023-04-08T00:53:25;97098.13;;;7.14;61.42
39411;BME280;26579;43.238;23.124;2023-04-08T00:55:51;97111.28;;;7.11;61.99
39411;BME280;26579;43.238;23.124;2023-04-08T00:58:17;97107.31;;;7.06;62.28
39411;BME280;26579;43.238;23.124;2023-04-08T01:00:51;97098.59;;;7.07;62.13
39411;BME280;26579;43.238;23.124;2023-04-08T01:06:40;97107.59;;;7.01;62.16
39411;BME280;26579;43.238;23.124;2023-04-08T01:09:09;97121.81;;;7.08;61.83
39411;BME280;26579;43.238;23.124;2023-04-08T01:11:37;97123.34;;;6.98;62.13
39411;BME280;26579;43.238;23.124;2023-04-08T01:14:07;97116.72;;;6.94;62.19
39411;BME280;26579;43.238;23.124;2023-04-08T01:16:34;97121.28;;;7.03;62.34
39411;BME280;26579;43.238;23.124;2023-04-08T01:19:01;97104.38;;;6.85;62.99
39411;BME280;26579;43.238;23.124;2023-04-08T01:21:28;97103.88;;;6.92;63.14
39411;BME280;26579;43.238;23.124;2023-04-08T01:24:00;97114.94;;;6.94;62.85
39411;BME280;26579;43.238;23.124;2023-04-08T01:26:31;97111.88;;;7.02;63.15
39411;BME280;26579;43.238;23.124;2023-04-08T01:28:59;97106.50;;;7.05;62.04
39411;BME280;26579;43.238;23.124;2023-04-08T01:31:26;97107.53;;;7.15;61.51
39411;BME280;26579;43.238;23.124;2023-04-08T01:33:53;97110.84;;;7.05;62.30
39411;BME280;26579;43.238;23.124;2023-04-08T01:36:22;97106.69;;;7.02;62.32
39411;BME280;26579;43.238;23.124;2023-04-08T01:38:49;97114.16;;;7.07;62.21
39411;BME280;26579;43.238;23.124;2023-04-08T01:41:16;97112.41;;;7.07;61.87
39411;BME280;26579;43.238;23.124;2023-04-08T01:43:43;97108.94;;;6.94;62.22
39411;BME280;26579;43.238;23.124;2023-04-08T01:46:10;97120.25;;;6.93;61.47
39411;BME280;26579;43.238;23.124;2023-04-08T01:48:37;97130.28;;;6.97;62.35
39411;BME280;26579;43.238;23.124;2023-04-08T01:51:04;97127.19;;;6.92;62.29
39411;BME280;26579;43.238;23.124;2023-04-08T01:53:31;97118.41;;;6.80;63.71
39411;BME280;26579;43.238;23.124;2023-04-08T01:56:06;97134.19;;;6.90;63.45
39411;BME280;26579;43.238;23.124;2023-04-08T01:58:40;97138.44;;;6.91;62.66
39411;BME280;26579;43.238;23.124;2023-04-08T02:01:10;97128.88;;;6.79;63.49
39411;BME280;26579;43.238;23.124;2023-04-08T02:03:37;97124.72;;;6.76;64.11
39411;BME280;26579;43.238;23.124;2023-04-08T02:06:04;97119.47;;;6.78;63.22
39411;BME280;26579;43.238;23.124;2023-04-08T02:08:31;97139.38;;;6.90;63.17
39411;BME280;26579;43.238;23.124;2023-04-08T02:10:57;97143.00;;;6.88;64.14
39411;BME280;26579;43.238;23.124;2023-04-08T02:13:23;97129.81;;;6.78;64.46
39411;BME280;26579;43.238;23.124;2023-04-08T02:15:51;97140.41;;;6.88;63.64
39411;BME280;26579;43.238;23.124;2023-04-08T02:18:24;97150.94;;;6.85;63.56
39411;BME280;26579;43.238;23.124;2023-04-08T02:21:01;97151.72;;;6.72;64.18
39411;BME280;26579;43.238;23.124;2023-04-08T02:23:30;97135.09;;;6.62;64.34
39411;BME280;26579;43.238;23.124;2023-04-08T02:25:59;97148.19;;;6.73;64.34
39411;BME280;26579;43.238;23.124;2023-04-08T02:28:27;97146.28;;;6.63;66.10
39411;BME280;26579;43.238;23.124;2023-04-08T02:30:56;97136.63;;;6.52;65.93
39411;BME280;26579;43.238;23.124;2023-04-08T02:33:22;97156.31;;;6.54;66.47
39411;BME280;26579;43.238;23.124;2023-04-08T02:35:51;97142.19;;;6.46;65.95
39411;BME280;26579;43.238;23.124;2023-04-08T02:38:17;97151.66;;;6.45;66.36
39411;BME280;26579;43.238;23.124;2023-04-08T02:40:43;97155.94;;;6.32;66.61
39411;BME280;26579;43.238;23.124;2023-04-08T02:43:09;97156.13;;;6.43;66.60
39411;BME280;26579;43.238;23.124;2023-04-08T02:45:40;97161.19;;;6.45;66.66
39411;BME280;26579;43.238;23.124;2023-04-08T02:48:08;97161.75;;;6.50;66.71
39411;BME280;26579;43.238;23.124;2023-04-08T02:50:34;97156.00;;;6.45;66.18
39411;BME280;26579;43.238;23.124;2023-04-08T02:52:59;97167.75;;;6.50;65.63
39411;BME280;26579;43.238;23.124;2023-04-08T02:55:25;97158.59;;;6.45;65.96
39411;BME280;26579;43.238;23.124;2023-04-08T02:57:51;97155.38;;;6.41;65.26
39411;BME280;26579;43.238;23.124;2023-04-08T03:00:17;97147.88;;;6.51;65.25
39411;BME280;26579;43.238;23.124;2023-04-08T03:02:42;97137.34;;;6.40;65.67
39411;BME280;26579;43.238;23.124;2023-04-08T03:05:09;97142.72;;;6.37;66.41
39411;BME280;26579;43.238;23.124;2023-04-08T03:07:34;97144.28;;;6.39;65.78
39411;BME280;26579;43.238;23.124;2023-04-08T03:10:01;97145.22;;;6.52;64.64
39411;BME280;26579;43.238;23.124;2023-04-08T03:12:27;97158.50;;;6.61;65.55
39411;BME280;26579;43.238;23.124;2023-04-08T03:14:53;97168.38;;;6.54;65.99
39411;BME280;26579;43.238;23.124;2023-04-08T03:17:18;97166.72;;;6.53;65.73
39411;BME280;26579;43.238;23.124;2023-04-08T03:19:44;97157.84;;;6.57;65.63
39411;BME280;26579;43.238;23.124;2023-04-08T03:22:10;97137.44;;;6.52;66.42
39411;BME280;26579;43.238;23.124;2023-04-08T03:24:36;97150.63;;;6.62;66.21
39411;BME280;26579;43.238;23.124;2023-04-08T03:27:02;97155.56;;;6.52;66.64
39411;BME280;26579;43.238;23.124;2023-04-08T03:29:28;97141.41;;;6.58;65.62
39411;BME280;26579;43.238;23.124;2023-04-08T03:31:54;97150.63;;;6.62;66.06
39411;BME280;26579;43.238;23.124;2023-04-08T03:34:19;97141.09;;;6.63;65.50
39411;BME280;26579;43.238;23.124;2023-04-08T03:36:45;97155.81;;;6.62;65.79
39411;BME280;26579;43.238;23.124;2023-04-08T03:39:11;97135.03;;;6.64;65.52
39411;BME280;26579;43.238;23.124;2023-04-08T03:41:36;97164.34;;;6.77;64.82
39411;BME280;26579;43.238;23.124;2023-04-08T03:44:02;97155.88;;;6.75;65.28
39411;BME280;26579;43.238;23.124;2023-04-08T03:46:28;97158.56;;;6.73;64.94
39411;BME280;26579;43.238;23.124;2023-04-08T03:48:54;97146.47;;;6.60;65.37
39411;BME280;26579;43.238;23.124;2023-04-08T03:51:19;97152.75;;;6.70;65.56
39411;BME280;26579;43.238;23.124;2023-04-08T03:53:45;97159.28;;;6.75;64.80
39411;BME280;26579;43.238;23.124;2023-04-08T03:56:11;97158.94;;;6.67;65.50
39411;BME280;26579;43.238;23.124;2023-04-08T03:58:37;97166.69;;;6.67;65.84
39411;BME280;26579;43.238;23.124;2023-04-08T04:01:02;97173.63;;;6.67;65.91
39411;BME280;26579;43.238;23.124;2023-04-08T04:03:28;97169.47;;;6.64;65.88
39411;BME280;26579;43.238;23.124;2023-04-08T04:05:54;97172.44;;;6.58;65.89
39411;BME280;26579;43.238;23.124;2023-04-08T04:08:20;97157.41;;;6.50;66.35
39411;BME280;26579;43.238;23.124;2023-04-08T04:10:45;97172.84;;;6.52;66.02
39411;BME280;26579;43.238;23.124;2023-04-08T04:13:11;97166.28;;;6.46;65.92
39411;BME280;26579;43.238;23.124;2023-04-08T04:15:40;97173.56;;;6.54;66.14
39411;BME280;26579;43.238;23.124;2023-04-08T04:18:07;97172.91;;;6.50;65.91
39411;BME280;26579;43.238;23.124;2023-04-08T04:20:32;97167.63;;;6.66;66.50
39411;BME280;26579;43.238;23.124;2023-04-08T04:22:58;97173.53;;;6.68;66.42
39411;BME280;26579;43.238;23.124;2023-04-08T04:25:24;97176.75;;;6.72;65.05
39411;BME280;26579;43.238;23.124;2023-04-08T04:27:49;97169.38;;;6.66;65.18
39411;BME280;26579;43.238;23.124;2023-04-08T04:30:15;97171.53;;;6.59;65.77
39411;BME280;26579;43.238;23.124;2023-04-08T04:32:42;97171.25;;;6.64;65.08
39411;BME280;26579;43.238;23.124;2023-04-08T04:35:09;97160.78;;;6.65;65.13
39411;BME280;26579;43.238;23.124;2023-04-08T04:37:34;97149.69;;;6.63;66.24
39411;BME280;26579;43.238;23.124;2023-04-08T04:40:00;97166.16;;;6.62;65.31
39411;BME280;26579;43.238;23.124;2023-04-08T04:42:26;97172.03;;;6.78;64.38
39411;BME280;26579;43.238;23.124;2023-04-08T04:44:52;97164.50;;;6.61;64.81
39411;BME280;26579;43.238;23.124;2023-04-08T04:47:17;97172.06;;;6.64;65.24
39411;BME280;26579;43.238;23.124;2023-04-08T04:49:43;97173.16;;;6.60;65.59
39411;BME280;26579;43.238;23.124;2023-04-08T04:52:09;97174.63;;;6.78;64.52
39411;BME280;26579;43.238;23.124;2023-04-08T04:54:35;97155.50;;;6.81;62.96
39411;BME280;26579;43.238;23.124;2023-04-08T04:57:01;97173.94;;;6.89;63.01
39411;BME280;26579;43.238;23.124;2023-04-08T04:59:26;97176.25;;;6.94;63.08
39411;BME280;26579;43.238;23.124;2023-04-08T05:01:52;97172.91;;;6.92;63.73
39411;BME280;26579;43.238;23.124;2023-04-08T05:04:18;97173.66;;;6.94;64.69
39411;BME280;26579;43.238;23.124;2023-04-08T05:06:44;97179.25;;;7.00;64.57
39411;BME280;26579;43.238;23.124;2023-04-08T05:09:10;97181.84;;;7.00;64.05
39411;BME280;26579;43.238;23.124;2023-04-08T05:11:36;97171.69;;;6.97;64.42
39411;BME280;26579;43.238;23.124;2023-04-08T05:14:02;97183.06;;;6.95;64.27
39411;BME280;26579;43.238;23.124;2023-04-08T05:16:28;97182.16;;;6.96;64.64
39411;BME280;26579;43.238;23.124;2023-04-08T05:18:54;97177.69;;;6.98;64.93
39411;BME280;26579;43.238;23.124;2023-04-08T05:21:20;97177.97;;;7.08;64.92
39411;BME280;26579;43.238;23.124;2023-04-08T05:23:46;97189.16;;;7.21;63.31
39411;BME280;26579;43.238;23.124;2023-04-08T05:26:12;97169.47;;;7.18;62.82
39411;BME280;26579;43.238;23.124;2023-04-08T05:28:37;97184.34;;;7.29;61.94
39411;BME280;26579;43.238;23.124;2023-04-08T05:31:03;97183.50;;;7.29;63.02
39411;BME280;26579;43.238;23.124;2023-04-08T05:33:30;97176.16;;;7.35;62.76
39411;BME280;26579;43.238;23.124;2023-04-08T05:35:55;97187.09;;;7.53;62.91
39411;BME280;26579;43.238;23.124;2023-04-08T05:38:21;97188.84;;;7.53;62.89
39411;BME280;26579;43.238;23.124;2023-04-08T05:40:47;97190.94;;;7.60;62.12
39411;BME280;26579;43.238;23.124;2023-04-08T05:43:14;97187.00;;;7.67;62.48
39411;BME280;26579;43.238;23.124;2023-04-08T05:45:42;97189.09;;;7.62;62.89
39411;BME280;26579;43.238;23.124;2023-04-08T05:48:09;97189.19;;;7.74;63.02
39411;BME280;26579;43.238;23.124;2023-04-08T05:50:34;97197.19;;;7.83;62.68
39411;BME280;26579;43.238;23.124;2023-04-08T05:53:00;97198.44;;;7.78;62.61
39411;BME280;26579;43.238;23.124;2023-04-08T05:55:26;97195.97;;;7.89;63.11
39411;BME280;26579;43.238;23.124;2023-04-08T05:57:52;97196.38;;;7.96;62.50
39411;BME280;26579;43.238;23.124;2023-04-08T06:00:18;97202.81;;;7.90;61.23
39411;BME280;26579;43.238;23.124;2023-04-08T06:02:44;97187.44;;;7.87;60.78
39411;BME280;26579;43.238;23.124;2023-04-08T06:05:10;97194.28;;;7.88;60.13
39411;BME280;26579;43.238;23.124;2023-04-08T06:07:36;97186.31;;;7.91;60.59
39411;BME280;26579;43.238;23.124;2023-04-08T06:10:02;97193.25;;;7.90;60.53
39411;BME280;26579;43.238;23.124;2023-04-08T06:12:27;97197.59;;;8.03;58.32
39411;BME280;26579;43.238;23.124;2023-04-08T06:14:56;97207.97;;;8.03;56.56
39411;BME280;26579;43.238;23.124;2023-04-08T06:17:22;97195.44;;;8.09;57.11
39411;BME280;26579;43.238;23.124;2023-04-08T06:19:48;97202.19;;;8.12;58.52
39411;BME280;26579;43.238;23.124;2023-04-08T06:22:14;97188.19;;;8.14;60.33
39411;BME280;26579;43.238;23.124;2023-04-08T06:24:40;97200.63;;;8.22;60.44
39411;BME280;26579;43.238;23.124;2023-04-08T06:27:06;97198.78;;;8.24;60.40
39411;BME280;26579;43.238;23.124;2023-04-08T06:29:31;97193.88;;;8.32;60.34
39411;BME280;26579;43.238;23.124;2023-04-08T06:31:57;97194.53;;;8.23;59.82
39411;BME280;26579;43.238;23.124;2023-04-08T06:34:23;97184.66;;;8.15;59.26
39411;BME280;26579;43.238;23.124;2023-04-08T06:36:49;97195.84;;;8.29;59.17
39411;BME280;26579;43.238;23.124;2023-04-08T06:39:15;97200.34;;;8.39;59.10
39411;BME280;26579;43.238;23.124;2023-04-08T06:41:41;97194.72;;;8.46;58.61
39411;BME280;26579;43.238;23.124;2023-04-08T06:44:19;97199.09;;;8.45;58.41
39411;BME280;26579;43.238;23.124;2023-04-08T06:46:45;97200.53;;;8.49;57.96
39411;BME280;26579;43.238;23.124;2023-04-08T06:49:11;97186.03;;;8.47;58.25
39411;BME280;26579;43.238;23.124;2023-04-08T06:51:37;97214.84;;;8.68;56.70
39411;BME280;26579;43.238;23.124;2023-04-08T06:54:03;97213.03;;;8.81;55.30
39411;BME280;26579;43.238;23.124;2023-04-08T06:56:28;97207.50;;;8.86;55.37
39411;BME280;26579;43.238;23.124;2023-04-08T06:58:54;97205.28;;;9.05;54.81
39411;BME280;26579;43.238;23.124;2023-04-08T07:01:20;97203.44;;;9.18;54.29
39411;BME280;26579;43.238;23.124;2023-04-08T07:03:45;97209.81;;;9.38;54.23
39411;BME280;26579;43.238;23.124;2023-04-08T07:06:11;97213.41;;;9.60;54.55
39411;BME280;26579;43.238;23.124;2023-04-08T07:08:37;97215.00;;;9.73;53.61
39411;BME280;26579;43.238;23.124;2023-04-08T07:11:02;97218.84;;;9.45;51.89
39411;BME280;26579;43.238;23.124;2023-04-08T07:13:28;97212.31;;;9.51;52.20
39411;BME280;26579;43.238;23.124;2023-04-08T07:15:54;97217.19;;;9.56;53.03
39411;BME280;26579;43.238;23.124;2023-04-08T07:18:19;97231.75;;;9.58;52.69
39411;BME280;26579;43.238;23.124;2023-04-08T07:20:49;97217.16;;;9.80;53.51
39411;BME280;26579;43.238;23.124;2023-04-08T07:23:15;97227.16;;;9.62;53.06
39411;BME280;26579;43.238;23.124;2023-04-08T07:25:41;97214.72;;;9.54;52.95
39411;BME280;26579;43.238;23.124;2023-04-08T07:28:06;97234.44;;;9.57;52.20
39411;BME280;26579;43.238;23.124;2023-04-08T07:30:32;97233.75;;;9.55;53.15
39411;BME280;26579;43.238;23.124;2023-04-08T07:32:58;97234.88;;;9.50;53.15
39411;BME280;26579;43.238;23.124;2023-04-08T07:35:23;97218.47;;;9.50;52.35
39411;BME280;26579;43.238;23.124;2023-04-08T07:37:49;97240.78;;;9.77;52.67
39411;BME280;26579;43.238;23.124;2023-04-08T07:40:15;97242.28;;;9.68;51.32
39411;BME280;26579;43.238;23.124;2023-04-08T07:42:41;97235.06;;;9.60;51.02
39411;BME280;26579;43.238;23.124;2023-04-08T07:45:07;97232.69;;;9.57;50.98
39411;BME280;26579;43.238;23.124;2023-04-08T07:47:33;97242.75;;;9.62;50.62
39411;BME280;26579;43.238;23.124;2023-04-08T07:49:59;97243.91;;;9.58;51.84
39411;BME280;26579;43.238;23.124;2023-04-08T07:52:25;97247.84;;;9.63;52.45
39411;BME280;26579;43.238;23.124;2023-04-08T07:54:50;97245.84;;;9.67;51.35
39411;BME280;26579;43.238;23.124;2023-04-08T07:57:16;97247.25;;;9.71;52.48
39411;BME280;26579;43.238;23.124;2023-04-08T07:59:42;97237.91;;;9.68;51.50
39411;BME280;26579;43.238;23.124;2023-04-08T08:02:07;97242.84;;;9.84;49.25
39411;BME280;26579;43.238;23.124;2023-04-08T08:04:33;97248.16;;;9.94;49.76
39411;BME280;26579;43.238;23.124;2023-04-08T08:06:59;97246.78;;;10.01;47.85
39411;BME280;26579;43.238;23.124;2023-04-08T08:09:24;97251.50;;;9.96;48.52
39411;BME280;26579;43.238;23.124;2023-04-08T08:11:50;97258.16;;;10.11;49.40
39411;BME280;26579;43.238;23.124;2023-04-08T08:14:15;97249.25;;;10.03;49.22
39411;BME280;26579;43.238;23.124;2023-04-08T08:16:41;97247.00;;;9.98;48.84
39411;BME280;26579;43.238;23.124;2023-04-08T08:19:07;97244.28;;;10.00;49.81
39411;BME280;26579;43.238;23.124;2023-04-08T08:21:35;97254.31;;;10.28;50.20
39411;BME280;26579;43.238;23.124;2023-04-08T08:24:01;97247.91;;;10.21;49.64
39411;BME280;26579;43.238;23.124;2023-04-08T08:26:27;97248.16;;;10.40;49.96
39411;BME280;26579;43.238;23.124;2023-04-08T08:28:53;97261.16;;;10.29;50.36
39411;BME280;26579;43.238;23.124;2023-04-08T08:31:19;97237.47;;;10.10;51.70
39411;BME280;26579;43.238;23.124;2023-04-08T08:33:44;97259.28;;;10.31;51.26
39411;BME280;26579;43.238;23.124;2023-04-08T08:36:10;97250.31;;;10.47;50.41
39411;BME280;26579;43.238;23.124;2023-04-08T08:38:36;97244.75;;;10.62;50.00
39411;BME280;26579;43.238;23.124;2023-04-08T08:41:02;97254.56;;;10.70;49.25
39411;BME280;26579;43.238;23.124;2023-04-08T08:43:28;97258.72;;;10.84;49.79
39411;BME280;26579;43.238;23.124;2023-04-08T08:45:54;97245.09;;;10.80;47.65
39411;BME280;26579;43.238;23.124;2023-04-08T08:48:19;97256.09;;;10.95;47.00
39411;BME280;26579;43.238;23.124;2023-04-08T08:50:45;97254.28;;;11.29;47.47
39411;BME280;26579;43.238;23.124;2023-04-08T08:53:11;97245.44;;;11.53;47.25
39411;BME280;26579;43.238;23.124;2023-04-08T08:55:37;97239.53;;;11.72;45.86
39411;BME280;26579;43.238;23.124;2023-04-08T08:58:03;97241.00;;;11.97;45.03
39411;BME280;26579;43.238;23.124;2023-04-08T09:00:36;97256.28;;;12.22;44.53
39411;BME280;26579;43.238;23.124;2023-04-08T09:05:53;97275.06;;;12.37;43.51
39411;BME280;26579;43.238;23.124;2023-04-08T09:08:35;97261.31;;;12.14;44.54
39411;BME280;26579;43.238;23.124;2023-04-08T09:11:16;97261.94;;;11.74;43.87
39411;BME280;26579;43.238;23.124;2023-04-08T09:13:43;97261.09;;;11.42;44.12
39411;BME280;26579;43.238;23.124;2023-04-08T09:16:10;97259.38;;;11.20;45.18
39411;BME280;26579;43.238;23.124;2023-04-08T09:18:37;97269.03;;;10.85;47.13
39411;BME280;26579;43.238;23.124;2023-04-08T09:21:04;97274.00;;;11.00;46.31
39411;BME280;26579;43.238;23.124;2023-04-08T09:23:48;97271.63;;;10.85;47.00
39411;BME280;26579;43.238;23.124;2023-04-08T09:26:22;97271.72;;;10.73;48.10
39411;BME280;26579;43.238;23.124;2023-04-08T09:31:33;97270.19;;;10.93;47.77
39411;BME280;26579;43.238;23.124;2023-04-08T09:34:00;97275.75;;;11.10;48.16
39411;BME280;26579;43.238;23.124;2023-04-08T09:36:33;97265.94;;;11.14;47.84
39411;BME280;26579;43.238;23.124;2023-04-08T09:38:59;97271.59;;;11.19;48.28
39411;BME280;26579;43.238;23.124;2023-04-08T09:41:27;97276.31;;;11.25;48.65
39411;BME280;26579;43.238;23.124;2023-04-08T09:43:54;97270.03;;;11.28;48.79
39411;BME280;26579;43.238;23.124;2023-04-08T09:49:25;97263.66;;;11.21;47.98
39411;BME280;26579;43.238;23.124;2023-04-08T09:54:49;97276.75;;;11.42;47.10
39411;BME280;26579;43.238;23.124;2023-04-08T09:57:24;97273.19;;;11.43;48.60
39411;BME280;26579;43.238;23.124;2023-04-08T10:00:04;97279.94;;;11.45;48.30
39411;BME280;26579;43.238;23.124;2023-04-08T10:05:20;97275.94;;;11.73;47.71
39411;BME280;26579;43.238;23.124;2023-04-08T10:07:47;97271.22;;;11.67;47.62
39411;BME280;26579;43.238;23.124;2023-04-08T10:10:13;97269.22;;;11.60;48.17
39411;BME280;26579;43.238;23.124;2023-04-08T10:12:39;97271.25;;;11.56;46.88
39411;BME280;26579;43.238;23.124;2023-04-08T10:15:28;97266.47;;;11.72;47.45
39411;BME280;26579;43.238;23.124;2023-04-08T10:27:57;97253.28;;;12.06;47.16
39411;BME280;26579;43.238;23.124;2023-04-08T10:32:55;97257.16;;;12.33;46.39
39411;BME280;26579;43.238;23.124;2023-04-08T10:35:31;97256.81;;;12.47;45.79
39411;BME280;26579;43.238;23.124;2023-04-08T10:38:00;97258.81;;;12.55;47.42
39411;BME280;26579;43.238;23.124;2023-04-08T10:40:26;97266.41;;;12.67;46.30
39411;BME280;26579;43.238;23.124;2023-04-08T10:42:55;97263.53;;;12.40;46.42
39411;BME280;26579;43.238;23.124;2023-04-08T10:45:22;97264.63;;;12.16;46.17
39411;BME280;26579;43.238;23.124;2023-04-08T10:47:48;97249.78;;;12.17;46.48
39411;BME280;26579;43.238;23.124;2023-04-08T10:50:18;97261.56;;;11.90;48.17
39411;BME280;26579;43.238;23.124;2023-04-08T10:52:53;97245.97;;;11.68;48.81
39411;BME280;26579;43.238;23.124;2023-04-08T10:55:22;97253.13;;;11.54;47.47
39411;BME280;26579;43.238;23.124;2023-04-08T10:57:49;97264.75;;;11.50;48.00
39411;BME280;26579;43.238;23.124;2023-04-08T11:00:38;97265.72;;;11.49;48.23
39411;BME280;26579;43.238;23.124;2023-04-08T11:03:09;97255.78;;;11.43;48.91
39411;BME280;26579;43.238;23.124;2023-04-08T11:05:36;97267.28;;;11.41;49.34
39411;BME280;26579;43.238;23.124;2023-04-08T11:08:03;97255.91;;;11.30;51.32
39411;BME280;26579;43.238;23.124;2023-04-08T11:10:29;97259.38;;;11.63;50.76
39411;BME280;26579;43.238;23.124;2023-04-08T11:12:55;97254.88;;;11.97;50.52
39411;BME280;26579;43.238;23.124;2023-04-08T11:15:23;97249.16;;;12.04;49.06
39411;BME280;26579;43.238;23.124;2023-04-08T11:17:49;97260.22;;;12.17;48.92
39411;BME280;26579;43.238;23.124;2023-04-08T11:20:16;97241.13;;;11.95;48.42
39411;BME280;26579;43.238;23.124;2023-04-08T11:22:43;97260.53;;;12.03;48.97
39411;BME280;26579;43.238;23.124;2023-04-08T11:25:10;97249.91;;;12.15;49.77
39411;BME280;26579;43.238;23.124;2023-04-08T11:27:36;97248.81;;;12.18;49.54
39411;BME280;26579;43.238;23.124;2023-04-08T11:30:03;97237.44;;;12.40;49.38
39411;BME280;26579;43.238;23.124;2023-04-08T11:32:29;97240.28;;;12.37;47.40
39411;BME280;26579;43.238;23.124;2023-04-08T11:34:54;97235.34;;;12.34;47.39
39411;BME280;26579;43.238;23.124;2023-04-08T11:37:20;97234.16;;;12.48;47.04
39411;BME280;26579;43.238;23.124;2023-04-08T11:39:46;97235.13;;;12.46;46.66
39411;BME280;26579;43.238;23.124;2023-04-08T11:42:31;97244.78;;;12.56;46.91
39411;BME280;26579;43.238;23.124;2023-04-08T11:44:57;97238.53;;;12.47;47.43
39411;BME280;26579;43.238;23.124;2023-04-08T11:47:33;97237.16;;;12.43;46.92
39411;BME280;26579;43.238;23.124;2023-04-08T11:49:59;97241.16;;;12.47;47.23
39411;BME280;26579;43.238;23.124;2023-04-08T11:52:47;97243.09;;;12.45;47.47
39411;BME280;26579;43.238;23.124;2023-04-08T11:55:25;97248.06;;;12.48;47.98
39411;BME280;26579;43.238;23.124;2023-04-08T11:57:52;97244.47;;;12.49;48.04
39411;BME280;26579;43.238;23.124;2023-04-08T12:00:19;97237.53;;;12.38;46.88
39411;BME280;26579;43.238;23.124;2023-04-08T12:02:45;97241.00;;;12.18;47.19
39411;BME280;26579;43.238;23.124;2023-04-08T12:05:11;97220.75;;;11.89;47.71
39411;BME280;26579;43.238;23.124;2023-04-08T12:07:37;97234.13;;;11.96;47.88
39411;BME280;26579;43.238;23.124;2023-04-08T12:10:03;97225.06;;;11.79;47.83
39411;BME280;26579;43.238;23.124;2023-04-08T12:12:28;97216.91;;;11.72;47.84
39411;BME280;26579;43.238;23.124;2023-04-08T12:14:54;97231.91;;;11.80;48.01
39411;BME280;26579;43.238;23.124;2023-04-08T12:17:20;97226.34;;;11.85;48.91
39411;BME280;26579;43.238;23.124;2023-04-08T12:19:45;97230.38;;;11.77;49.96
39411;BME280;26579;43.238;23.124;2023-04-08T12:22:11;97232.31;;;11.75;49.68
39411;BME280;26579;43.238;23.124;2023-04-08T12:24:37;97235.91;;;11.63;50.61
39411;BME280;26579;43.238;23.124;2023-04-08T12:27:02;97233.63;;;11.70;50.43
39411;BME280;26579;43.238;23.124;2023-04-08T12:29:28;97230.91;;;11.71;51.48
39411;BME280;26579;43.238;23.124;2023-04-08T12:31:54;97232.88;;;11.79;51.78
39411;BME280;26579;43.238;23.124;2023-04-08T12:34:19;97219.38;;;11.74;55.49
39411;BME280;26579;43.238;23.124;2023-04-08T12:36:45;97224.75;;;11.72;55.19
39411;BME280;26579;43.238;23.124;2023-04-08T12:39:10;97241.25;;;11.62;56.43
39411;BME280;26579;43.238;23.124;2023-04-08T12:41:36;97237.22;;;11.57;57.87
39411;BME280;26579;43.238;23.124;2023-04-08T12:44:02;97231.69;;;11.51;59.15
39411;BME280;26579;43.238;23.124;2023-04-08T12:46:28;97253.31;;;11.30;56.40
39411;BME280;26579;43.238;23.124;2023-04-08T12:48:53;97248.50;;;11.26;57.76
39411;BME280;26579;43.238;23.124;2023-04-08T12:51:19;97252.59;;;11.28;56.15
39411;BME280;26579;43.238;23.124;2023-04-08T12:53:45;97250.25;;;11.25;55.47
39411;BME280;26579;43.238;23.124;2023-04-08T12:56:10;97243.16;;;11.16;59.98
39411;BME280;26579;43.238;23.124;2023-04-08T12:58:36;97241.38;;;11.17;62.93
39411;BME280;26579;43.238;23.124;2023-04-08T13:01:02;97257.97;;;11.16;64.17
39411;BME280;26579;43.238;23.124;2023-04-08T13:03:27;97255.50;;;11.03;66.80
39411;BME280;26579;43.238;23.124;2023-04-08T13:05:53;97242.97;;;10.97;65.96
39411;BME280;26579;43.238;23.124;2023-04-08T13:08:19;97256.69;;;10.99;67.87
39411;BME280;26579;43.238;23.124;2023-04-08T13:10:44;97237.41;;;10.79;66.38
39411;BME280;26579;43.238;23.124;2023-04-08T13:13:10;97244.28;;;10.69;67.96
39411;BME280;26579;43.238;23.124;2023-04-08T13:15:36;97244.75;;;10.62;68.42
39411;BME280;26579;43.238;23.124;2023-04-08T13:18:01;97240.63;;;10.60;69.07
39411;BME280;26579;43.238;23.124;2023-04-08T13:20:27;97238.84;;;10.60;68.59
39411;BME280;26579;43.238;23.124;2023-04-08T13:22:53;97251.84;;;10.60;68.72
39411;BME280;26579;43.238;23.124;2023-04-08T13:25:19;97243.56;;;10.55;69.32
39411;BME280;26579;43.238;23.124;2023-04-08T13:27:44;97247.00;;;10.56;69.21